• Join FlightAware (Why Join?)
  • Login
  • US Flag 
06:53PM EST


 

Airport Tracker/Info


-or-


 

Live Flight TrackerFlight Track Log ✈ N662US ✈ 11-Jun-2013 ✈ ZSPD / PVG - RJAA / NRT

Flight Track Log - Related Links

Times and Time Zones

All times are in EDT time to prevent confusion due to time zone crossing. See the N662US flight status page for this flight to view local times or setup timezone preferences in your user account.

Time Position Orientation Groundspeed Altitude Reporting Facility
EDT Latitude Longitude Course Direction KTS MPH feet Rate Location/Type
09:10PM 31.1844 121.9152 68° East  Level Estimated
09:11PM 31.2258 122.0382 68° East  Level Estimated
09:12PM 31.2672 122.1612 69° East  Level Estimated
09:13PM 31.3084 122.2844 69° East  Level Estimated
09:14PM 31.3495 122.4076 69° East  Level Estimated
09:15PM 31.3904 122.5310 69° East  Level Estimated
09:16PM 31.4313 122.6545 69° East  Level Estimated
09:17PM 31.4720 122.7781 69° East  Level Estimated
09:18PM 31.5127 122.9018 69° East  Level Estimated
09:19PM 31.5532 123.0256 69° East  Level Estimated
09:20PM 31.5936 123.1495 69° East  Level Estimated
09:21PM 31.6339 123.2735 69° East  Level Estimated
09:22PM 31.6740 123.3977 69° East  Level Estimated
09:22PM 31.1890 121.8140 69° East 172 198 1,800  Level FlightAware
09:23PM 31.7155 123.5264 69° East  Level Estimated
09:23PM 31.2060 121.8220 22° Northeast 172 198 1,800  Level FlightAware
09:24PM 31.2770 121.8320 North 260 299 4,500 3,000 Climbing FlightAware
09:24PM 31.3230 121.8400 North 274 315 6,300 3,000 Climbing FlightAware
09:25PM 31.3540 121.8450 North 281 323 7,500 2,923 Climbing FlightAware
09:25PM 31.3720 121.8570 30° Northeast 289 333 8,200 2,538 Climbing FlightAware
09:25PM 31.3800 121.8670 47° Northeast 289 333 8,600 2,464 Climbing FlightAware
09:26PM 31.4090 121.9240 59° Northeast 303 349 10,500 1,906 Climbing FlightAware
09:26PM 31.4400 121.9890 61° Northeast 359 413 11,300 1,500 Climbing FlightAware
09:27PM 31.4780 122.0650 60° Northeast 401 461 12,500 1,465 Climbing FlightAware
09:28PM 31.5170 122.1490 61° Northeast 409 471 13,400 2,259 Climbing FlightAware
09:29PM 31.5590 122.2320 59° Northeast 434 499 15,700 1,643 Climbing FlightAware
09:29PM 31.5990 122.3170 61° Northeast 435 501 15,700 1,482 Level FlightAware
09:30PM 31.6320 122.4200 69° East 445 512 17,800 2,250 Climbing FlightAware
09:31PM 31.6450 122.5150 81° East 461 531 18,700 628 Climbing FlightAware
09:31PM 31.6590 122.6190 81° East 462 532 18,700  Level FlightAware
09:32PM 31.6690 122.6970 81° East 462 532 18,700  Level FlightAware
09:33PM 31.6830 122.8010 81° East 462 532 18,700 659 Level FlightAware
09:33PM 31.7000 122.9300 81° East 479 551 19,600 635 Climbing FlightAware
09:34PM 31.7130 123.0440 82° East 479 551 19,600  Level FlightAware
09:35PM 31.7230 123.1250 82° East 479 551 19,600  Level FlightAware
09:36PM 31.7350 123.2300 82° East 479 551 19,600  Level FlightAware
09:36PM 31.7450 123.3140 82° East 479 551 19,600  Level FlightAware
09:37PM 31.7550 123.3950 82° East 479 551 19,600 534 Level FlightAware
09:40PM 31.8618 123.7330 70° East  Level Estimated
09:41PM 31.9024 123.8624 70° East  Level Estimated
09:42PM 31.9431 123.9929 70° East  Level Estimated
09:43PM 31.9837 124.1235 70° East  Level Estimated
09:44PM 32.0242 124.2542 70° East  Level Estimated
09:45PM 32.0645 124.3850 70° East  Level Estimated
09:46PM 32.1047 124.5159 70° East  Level Estimated
09:47PM 32.1448 124.6469 70° East  Level Estimated
09:48PM 32.1847 124.7781 70° East  Level Estimated
09:49PM 32.2245 124.9093 70° East  Level Estimated
09:50PM 32.2642 125.0407 70° East  Level Estimated
09:51PM 32.3037 125.1722 70° East  Level Estimated
09:52PM 32.3431 125.3038 70° East  Level Estimated
09:53PM 32.3824 125.4355 71° East  Level Estimated
09:54PM 32.4215 125.5674 71° East  Level Estimated
09:55PM 32.4605 125.6993 71° East  Level Estimated
09:56PM 32.4993 125.8314 71° East  Level Estimated
09:57PM 32.5380 125.9636 71° East  Level Estimated
09:58PM 32.5766 126.0958 71° East  Level Estimated
09:59PM 32.6150 126.2283 71° East  Level Estimated
10:00PM 32.6533 126.3608 71° East  Level Estimated
10:01PM 32.6914 126.4934 71° East  Level Estimated
10:02PM 32.7294 126.6262 71° East  Level Estimated
10:03PM 32.7673 126.7590 71° East  Level Estimated
10:04PM 32.8050 126.8920 71° East  Level Estimated
10:05PM 32.8426 127.0251 71° East  Level Estimated
10:06PM 32.8801 127.1583 71° East  Level Estimated
10:07PM 32.9174 127.2916 72° East  Level Estimated
10:08PM 32.9545 127.4250 72° East  Level Estimated
10:09PM 32.9916 127.5585 72° East  Level Estimated
10:10PM 33.0284 127.6922 72° East  Level Estimated
10:11PM 33.0652 127.8259 72° East  Level Estimated
10:12PM 33.1018 127.9598 72° East  Level Estimated
10:13PM 33.1382 128.0938 72° East  Level Estimated
10:13PM 32.7150 129.1990 72° East 503 579 39,000  Level FlightAware
10:13PM 32.7430 129.3010 72° East 503 579 39,000  Level FlightAware
10:14PM 33.1745 128.2279 72° East  Level Estimated
10:14PM 32.7750 129.4230 73° East 503 579 39,000  Level FlightAware
10:15PM 32.8030 129.5310 73° East 503 579 39,000  Level FlightAware
10:15PM 32.8310 129.6420 73° East 500 575 39,000  Level FlightAware
10:16PM 32.8560 129.7710 77° East 502 578 39,000  Level FlightAware
10:17PM 32.8720 129.8830 80° East 505 581 39,000  Level FlightAware
10:18PM 32.8870 129.9870 80° East 505 581 39,000  Level FlightAware
10:18PM 32.9050 130.1120 80° East 505 581 39,000  Level FlightAware
10:19PM 32.9200 130.2220 81° East 504 580 39,000  Level FlightAware
10:20PM 32.9340 130.3150 80° East 503 579 39,000  Level FlightAware
10:20PM 32.9520 130.4430 80° East 503 579 39,000  Level FlightAware
10:21PM 32.9690 130.5660 81° East 503 579 39,000  Level FlightAware
10:22PM 32.9860 130.6890 81° East 503 579 39,000  Level FlightAware
10:22PM 33.0010 130.7980 81° East 502 578 39,000  Level FlightAware
10:23PM 33.0160 130.9100 81° East 501 577 39,000  Level FlightAware
10:24PM 33.0300 131.0130 81° East 501 577 39,000  Level FlightAware
10:25PM 33.0470 131.1340 80° East 502 578 39,000  Level FlightAware
10:25PM 33.0620 131.2510 81° East 499 574 39,000  Level FlightAware
10:26PM 33.0770 131.3600 81° East 498 573 39,000  Level FlightAware
10:27PM 33.0920 131.4790 81° East 497 572 39,000  Level FlightAware
10:27PM 33.1050 131.5800 81° East 496 571 39,000  Level FlightAware
10:28PM 33.1230 131.7120 81° East 495 570 39,000  Level FlightAware
10:29PM 33.1360 131.8180 82° East 495 570 39,000  Level FlightAware
10:29PM 33.1530 131.9470 81° East 497 572 39,000  Level FlightAware
10:30PM 33.1670 132.0550 81° East 497 572 39,000  Level FlightAware
10:31PM 33.1800 132.1640 82° East 498 573 39,000  Level FlightAware
10:32PM 33.1960 132.2860 81° East 499 574 39,000  Level FlightAware
10:32PM 33.2090 132.3950 82° East 499 574 39,000  Level FlightAware
10:33PM 33.2220 132.5010 82° East 499 574 39,000  Level FlightAware
10:34PM 33.2380 132.6260 81° East 499 574 39,000  Level FlightAware
10:34PM 33.2500 132.7330 82° East 500 575 39,000  Level FlightAware
10:35PM 33.2660 132.8580 81° East 500 575 39,000  Level FlightAware
10:36PM 33.2800 132.9760 82° East 501 577 39,000  Level FlightAware
10:36PM 33.2920 133.0820 82° East 500 575 39,000  Level FlightAware
10:37PM 33.3030 133.1700 81° East 500 575 39,000  Level FlightAware
10:38PM 33.3180 133.3040 82° East 500 575 39,000  Level FlightAware
10:38PM 33.3300 133.4080 82° East 501 577 39,000  Level FlightAware
10:39PM 33.3440 133.5290 82° East 501 577 39,000  Level FlightAware
10:40PM 33.3560 133.6330 82° East 500 575 39,000  Level FlightAware
10:41PM 33.3720 133.7700 82° East 501 577 39,000  Level FlightAware
10:41PM 33.3840 133.8830 83° East 502 578 39,000  Level FlightAware
10:42PM 33.3980 134.0070 82° East 502 578 39,000  Level FlightAware
10:43PM 33.4100 134.1170 83° East 503 579 39,000  Level FlightAware
10:43PM 33.4230 134.2410 83° East 502 578 39,000  Level FlightAware
10:44PM 33.4350 134.3510 83° East 502 578 39,000  Level FlightAware
10:45PM 33.4490 134.4750 82° East 502 578 39,000  Level FlightAware
10:46PM 33.4600 134.5850 83° East 503 579 39,000  Level FlightAware
10:46PM 33.4730 134.7090 83° East 502 578 39,000  Level FlightAware
10:47PM 33.4850 134.8190 83° East 502 578 39,000  Level FlightAware
10:48PM 33.4960 134.9300 83° East 502 578 39,000  Level FlightAware
10:48PM 33.5070 135.0400 83° East 503 579 39,000  Level FlightAware
10:49PM 33.5190 135.1510 83° East 503 579 39,000  Level FlightAware
10:50PM 33.5310 135.2750 83° East 504 580 39,000  Level FlightAware
10:50PM 33.5440 135.4000 83° East 503 579 39,000  Level FlightAware
10:51PM 33.5540 135.5100 84° East 501 577 39,000  Level FlightAware
10:52PM 33.5660 135.6310 83° East 500 575 39,000  Level FlightAware
10:53PM 33.5760 135.7390 84° East 501 577 39,000  Level FlightAware
10:53PM 33.5870 135.8520 83° East 501 577 39,000  Level FlightAware
10:54PM 33.5990 135.9780 83° East 500 575 39,000  Level FlightAware
10:55PM 33.6100 136.0880 83° East 499 574 39,000  Level FlightAware
10:55PM 33.6200 136.1960 84° East 499 574 39,000  Level FlightAware
10:56PM 33.6310 136.3220 84° East 500 575 39,000  Level FlightAware
10:57PM 33.6410 136.4250 83° East 500 575 39,000  Level FlightAware
10:58PM 33.6540 136.5710 84° East 500 575 39,000  Level FlightAware
10:58PM 33.6660 136.7060 84° East 499 574 39,000  Level FlightAware
10:59PM 33.6740 136.8020 84° East 500 575 39,000  Level FlightAware
11:00PM 33.6850 136.9290 84° East 500 575 39,000  Level FlightAware
11:01PM 33.6950 137.0480 84° East 500 575 39,000  Level FlightAware
11:01PM 33.7100 137.1630 81° East 499 574 39,000  Level FlightAware
11:02PM 33.7280 137.2630 78° East 498 573 39,000  Level FlightAware
11:03PM 33.7510 137.3840 77° East 498 573 39,000  Level FlightAware
11:03PM 33.7730 137.5040 78° East 498 573 39,000  Level FlightAware
11:04PM 33.7920 137.6070 77° East 500 575 39,000  Level FlightAware
11:05PM 33.8150 137.7380 78° East 501 577 39,000  Level FlightAware
11:05PM 33.8370 137.8580 78° East 501 577 39,000  Level FlightAware
11:06PM 33.8550 137.9590 78° East 502 578 39,000  Level FlightAware
11:07PM 33.8790 138.0910 78° East 503 579 39,000  Level FlightAware
11:07PM 33.8980 138.1750 75° East 502 578 39,000  Level FlightAware
11:08PM 33.9330 138.3110 73° East 502 578 39,000 -207 Level FlightAware
11:09PM 33.9580 138.4070 73° East 500 575 38,700 -1,026 Descending FlightAware
11:10PM 33.9880 138.5170 72° East 507 583 37,700 -1,271 Descending FlightAware
11:10PM 34.0160 138.6220 72° East 508 585 36,900 -1,098 Descending FlightAware
11:11PM 34.0480 138.7390 72° East 510 587 36,200 -1,027 Descending FlightAware
11:12PM 34.1010 138.9380 72° East 514 592 35,000 -1,008 Descending FlightAware
11:13PM 34.1350 139.0700 73° East 516 594 34,200 -1,000 Descending FlightAware
11:14PM 34.1670 139.1920 72° East 521 600 33,500 -900 Descending FlightAware
11:14PM 34.1910 139.2850 73° East 523 602 33,000 -608 Descending FlightAware
11:15PM 34.2250 139.4120 72° East 516 594 32,700 -500 Descending FlightAware
11:16PM 34.2500 139.5120 73° East 514 592 32,300 -706 Descending FlightAware
11:16PM 34.2850 139.6470 73° East 515 593 31,700 -800 Descending FlightAware
11:17PM 34.3180 139.7740 73° East 519 597 31,100 -635 Descending FlightAware
11:18PM 34.3430 139.8750 73° East 520 598 30,800 -444 Descending FlightAware
11:18PM 34.3820 139.9940 68° East 513 590 30,500 -434 Descending FlightAware
11:19PM 34.4270 140.0870 60° Northeast 503 579 30,200 -706 Descending FlightAware
11:20PM 34.4870 140.2020 58° Northeast 500 575 29,500 -1,643 Descending FlightAware
11:21PM 34.5350 140.2950 58° Northeast 493 567 27,900 -1,407 Descending FlightAware
11:21PM 34.5780 140.3780 58° Northeast 484 557 27,600 -1,129 Descending FlightAware
11:22PM 34.6340 140.4870 58° Northeast 464 534 26,300 -1,724 Descending FlightAware
11:23PM 34.6840 140.5780 56° Northeast 457 526 25,100 -1,880 Descending FlightAware
11:23PM 34.7530 140.6380 36° Northeast 430 495 23,700 -2,414 Descending FlightAware
11:24PM 34.8420 140.6630 13° North 426 490 21,600 -3,146 Descending FlightAware
11:25PM 34.9090 140.6740 North 436 502 19,400 -3,722 Descending FlightAware
11:25PM 35.0000 140.6910 North 437 503 16,700 -3,279 Descending FlightAware
11:26PM 35.0850 140.7080 North 423 487 14,700 -2,791 Descending FlightAware
11:27PM 35.1650 140.7230 North 403 464 12,700 -2,927 Descending FlightAware
11:28PM 35.2450 140.7210 359° North 402 463 10,700 -1,950 Descending FlightAware
11:28PM 35.3180 140.7140 356° North 359 413 10,100 -488 Descending FlightAware
11:29PM 35.3890 140.7070 355° North 320 368 10,000 -80 Descending FlightAware
11:29PM 35.4290 140.7030 355° North 289 333 10,000 -655 Level FlightAware
11:30PM 35.4640 140.6930 347° North 284 327 9,400 -1,418 Descending FlightAware
11:30PM 35.5030 140.6810 346° North 284 327 8,700 -1,400 Descending FlightAware
11:31PM 35.5420 140.6680 345° North 283 326 8,000 -778 Descending FlightAware
11:31PM 35.5740 140.6590 347° North 281 323 8,000  Level FlightAware
11:32PM 35.6090 140.6480 346° North 281 323 8,000  Level FlightAware
11:32PM 35.6470 140.6350 344° North 285 328 8,000 -600 Level FlightAware
11:33PM 35.6840 140.6160 337° Northwest 282 325 7,400 -1,263 Descending FlightAware
11:33PM 35.7120 140.6010 336° Northwest 281 323 6,800 -1,263 Descending FlightAware
11:34PM 35.7490 140.5790 334° Northwest 267 307 6,200 -814 Descending FlightAware
11:34PM 35.7820 140.5590 334° Northwest 282 325 6,000 -145 Descending FlightAware
11:35PM 35.8450 140.5200 333° Northwest 267 307 6,000  Level FlightAware
11:35PM 35.8570 140.5130 335° Northwest 267 307 6,000  Level FlightAware
11:36PM 35.8860 140.4950 333° Northwest 267 307 6,000  Level FlightAware
11:36PM 35.9220 140.4710 332° Northwest 263 303 6,000 -300 Level FlightAware
11:37PM 35.9380 140.4380 301° West 259 298 5,700 -857 Descending FlightAware
11:37PM 35.9460 140.3990 284° West 243 280 5,200 -1,269 Descending FlightAware
11:38PM 35.9520 140.3690 284° West 234 269 4,600 -1,615 Descending FlightAware
11:38PM 35.9520 140.3340 270° West 229 264 3,800 -1,729 Descending FlightAware
11:39PM 35.9420 140.2940 253° West 230 265 2,900 -1,429 Descending FlightAware
11:39PM 35.9360 140.2840 233° Southwest 225 259 2,800 -207 Descending FlightAware
11:39PM 35.9230 140.2750 209° Southwest 214 246 2,800  Level FlightAware
11:39PM 35.9090 140.2730 187° South 177 204 2,800 -150 Level FlightAware
11:40PM 35.8910 140.2820 158° South 160 184 2,700 -517 Descending FlightAware
11:40PM 35.8730 140.2960 148° Southeast 154 177 2,300 -764 Descending FlightAware
11:41PM 35.8580 140.3070 149° Southeast 158 182 2,000 -764 Descending FlightAware
11:41PM 35.8400 140.3200 150° Southeast 157 181 1,600 -429 Descending FlightAware
11:42PM 35.8260 140.3300 150° Southeast 157 181 1,600  Level FlightAware
11:44PM 35.7647 140.3864 143° Southeast  Level Estimated